sensor_id;sensor_type;location;lat;lon;timestamp;temperature;humidity
75457;SHT31;64036;48.266;14.192;2022-10-16T00:01:04;13.93;87.37
75457;SHT31;64036;48.266;14.192;2022-10-16T00:03:32;13.91;87.30
75457;SHT31;64036;48.266;14.192;2022-10-16T00:05:59;13.93;87.36
75457;SHT31;64036;48.266;14.192;2022-10-16T00:08:26;13.99;87.33
75457;SHT31;64036;48.266;14.192;2022-10-16T00:10:52;14.04;87.27
75457;SHT31;64036;48.266;14.192;2022-10-16T00:13:18;14.10;87.19
75457;SHT31;64036;48.266;14.192;2022-10-16T00:15:45;14.14;87.06
75457;SHT31;64036;48.266;14.192;2022-10-16T00:18:11;14.16;87.08
75457;SHT31;64036;48.266;14.192;2022-10-16T00:20:37;14.16;86.97
75457;SHT31;64036;48.266;14.192;2022-10-16T00:23:03;14.13;86.97
75457;SHT31;64036;48.266;14.192;2022-10-16T00:25:30;14.13;86.95
75457;SHT31;64036;48.266;14.192;2022-10-16T00:27:58;14.12;87.00
75457;SHT31;64036;48.266;14.192;2022-10-16T00:30:25;14.13;86.95
75457;SHT31;64036;48.266;14.192;2022-10-16T00:32:52;14.12;86.88
75457;SHT31;64036;48.266;14.192;2022-10-16T00:35:18;14.11;86.74
75457;SHT31;64036;48.266;14.192;2022-10-16T00:37:44;14.09;86.65
75457;SHT31;64036;48.266;14.192;2022-10-16T00:40:09;14.07;86.67
75457;SHT31;64036;48.266;14.192;2022-10-16T00:42:35;14.08;86.62
75457;SHT31;64036;48.266;14.192;2022-10-16T00:45:01;14.09;86.50
75457;SHT31;64036;48.266;14.192;2022-10-16T00:47:42;14.07;86.33
75457;SHT31;64036;48.266;14.192;2022-10-16T00:52:56;14.02;86.14
75457;SHT31;64036;48.266;14.192;2022-10-16T00:55:24;13.96;86.15
75457;SHT31;64036;48.266;14.192;2022-10-16T00:57:51;13.93;86.26
75457;SHT31;64036;48.266;14.192;2022-10-16T01:00:19;13.90;86.39
75457;SHT31;64036;48.266;14.192;2022-10-16T01:02:55;13.80;86.58
75457;SHT31;64036;48.266;14.192;2022-10-16T01:05:24;13.71;86.78
75457;SHT31;64036;48.266;14.192;2022-10-16T01:08:13;13.67;87.06
75457;SHT31;64036;48.266;14.192;2022-10-16T01:13:56;13.66;86.78
75457;SHT31;64036;48.266;14.192;2022-10-16T01:22:20;13.64;86.85
75457;SHT31;64036;48.266;14.192;2022-10-16T01:24:51;13.63;86.96
75457;SHT31;64036;48.266;14.192;2022-10-16T01:29:58;13.63;86.94
75457;SHT31;64036;48.266;14.192;2022-10-16T01:32:46;13.62;87.05
75457;SHT31;64036;48.266;14.192;2022-10-16T01:35:25;13.66;87.10
75457;SHT31;64036;48.266;14.192;2022-10-16T01:38:08;13.69;87.05
75457;SHT31;64036;48.266;14.192;2022-10-16T01:40:56;13.76;87.17
75457;SHT31;64036;48.266;14.192;2022-10-16T01:43:31;13.78;87.25
75457;SHT31;64036;48.266;14.192;2022-10-16T01:46:20;13.78;87.46
75457;SHT31;64036;48.266;14.192;2022-10-16T01:48:48;13.76;87.33
75457;SHT31;64036;48.266;14.192;2022-10-16T01:51:16;13.69;87.36
75457;SHT31;64036;48.266;14.192;2022-10-16T01:53:45;13.58;87.50
75457;SHT31;64036;48.266;14.192;2022-10-16T01:56:18;13.54;87.67
75457;SHT31;64036;48.266;14.192;2022-10-16T01:58:55;13.56;87.62
75457;SHT31;64036;48.266;14.192;2022-10-16T02:01:29;13.61;87.50
75457;SHT31;64036;48.266;14.192;2022-10-16T02:03:59;13.64;87.39
75457;SHT31;64036;48.266;14.192;2022-10-16T02:06:34;13.62;87.28
75457;SHT31;64036;48.266;14.192;2022-10-16T02:09:00;13.54;87.27
75457;SHT31;64036;48.266;14.192;2022-10-16T02:11:26;13.51;87.40
75457;SHT31;64036;48.266;14.192;2022-10-16T02:13:55;13.52;87.40
75457;SHT31;64036;48.266;14.192;2022-10-16T02:16:38;13.56;87.45
75457;SHT31;64036;48.266;14.192;2022-10-16T02:19:06;13.61;87.32
75457;SHT31;64036;48.266;14.192;2022-10-16T02:27:34;13.54;87.20
75457;SHT31;64036;48.266;14.192;2022-10-16T02:32:48;13.47;87.23
75457;SHT31;64036;48.266;14.192;2022-10-16T02:35:16;13.42;87.32
75457;SHT31;64036;48.266;14.192;2022-10-16T02:37:44;13.43;87.44
75457;SHT31;64036;48.266;14.192;2022-10-16T02:40:11;13.44;87.43
75457;SHT31;64036;48.266;14.192;2022-10-16T02:42:38;13.46;87.41
75457;SHT31;64036;48.266;14.192;2022-10-16T02:45:06;13.44;87.39
75457;SHT31;64036;48.266;14.192;2022-10-16T02:47:34;13.37;87.42
75457;SHT31;64036;48.266;14.192;2022-10-16T02:50:00;13.30;87.55
75457;SHT31;64036;48.266;14.192;2022-10-16T02:52:26;13.26;87.82
75457;SHT31;64036;48.266;14.192;2022-10-16T02:54:52;13.25;88.19
75457;SHT31;64036;48.266;14.192;2022-10-16T02:57:17;13.28;88.35
75457;SHT31;64036;48.266;14.192;2022-10-16T02:59:43;13.30;88.34
75457;SHT31;64036;48.266;14.192;2022-10-16T03:02:10;13.34;88.42
75457;SHT31;64036;48.266;14.192;2022-10-16T03:04:36;13.35;88.46
75457;SHT31;64036;48.266;14.192;2022-10-16T03:07:02;13.28;88.63
75457;SHT31;64036;48.266;14.192;2022-10-16T03:09:28;13.21;88.83
75457;SHT31;64036;48.266;14.192;2022-10-16T03:11:54;13.24;88.97
75457;SHT31;64036;48.266;14.192;2022-10-16T03:14:20;13.30;88.86
75457;SHT31;64036;48.266;14.192;2022-10-16T03:16:45;13.30;88.83
75457;SHT31;64036;48.266;14.192;2022-10-16T03:19:11;13.27;88.79
75457;SHT31;64036;48.266;14.192;2022-10-16T03:21:37;13.26;88.81
75457;SHT31;64036;48.266;14.192;2022-10-16T03:24:02;13.22;88.81
75457;SHT31;64036;48.266;14.192;2022-10-16T03:26:28;13.19;88.95
75457;SHT31;64036;48.266;14.192;2022-10-16T03:28:54;13.17;89.06
75457;SHT31;64036;48.266;14.192;2022-10-16T03:31:20;13.14;89.08
75457;SHT31;64036;48.266;14.192;2022-10-16T03:33:45;13.16;89.20
75457;SHT31;64036;48.266;14.192;2022-10-16T03:36:11;13.23;89.09
75457;SHT31;64036;48.266;14.192;2022-10-16T03:38:36;13.28;88.98
75457;SHT31;64036;48.266;14.192;2022-10-16T03:41:02;13.33;88.87
75457;SHT31;64036;48.266;14.192;2022-10-16T03:43:28;13.36;88.72
75457;SHT31;64036;48.266;14.192;2022-10-16T03:45:54;13.38;88.68
75457;SHT31;64036;48.266;14.192;2022-10-16T03:48:20;13.36;88.55
75457;SHT31;64036;48.266;14.192;2022-10-16T03:50:45;13.31;88.54
75457;SHT31;64036;48.266;14.192;2022-10-16T03:53:13;13.30;88.53
75457;SHT31;64036;48.266;14.192;2022-10-16T03:55:43;13.27;88.53
75457;SHT31;64036;48.266;14.192;2022-10-16T03:58:09;13.22;88.62
75457;SHT31;64036;48.266;14.192;2022-10-16T04:00:39;13.25;88.60
75457;SHT31;64036;48.266;14.192;2022-10-16T04:03:09;13.26;88.50
75457;SHT31;64036;48.266;14.192;2022-10-16T04:05:35;13.25;88.41
75457;SHT31;64036;48.266;14.192;2022-10-16T04:08:00;13.28;88.43
75457;SHT31;64036;48.266;14.192;2022-10-16T04:10:26;13.29;88.24
75457;SHT31;64036;48.266;14.192;2022-10-16T04:12:51;13.24;88.20
75457;SHT31;64036;48.266;14.192;2022-10-16T04:15:19;13.21;88.18
75457;SHT31;64036;48.266;14.192;2022-10-16T04:17:45;13.20;88.19
75457;SHT31;64036;48.266;14.192;2022-10-16T04:20:11;13.20;88.14
75457;SHT31;64036;48.266;14.192;2022-10-16T04:22:36;13.20;88.08
75457;SHT31;64036;48.266;14.192;2022-10-16T04:25:02;13.17;88.12
75457;SHT31;64036;48.266;14.192;2022-10-16T04:27:28;13.21;88.19
75457;SHT31;64036;48.266;14.192;2022-10-16T04:29:56;13.18;88.09
75457;SHT31;64036;48.266;14.192;2022-10-16T04:32:23;13.15;88.07
75457;SHT31;64036;48.266;14.192;2022-10-16T04:34:48;13.12;88.05
75457;SHT31;64036;48.266;14.192;2022-10-16T04:37:14;13.09;88.08
75457;SHT31;64036;48.266;14.192;2022-10-16T04:39:39;13.03;88.01
75457;SHT31;64036;48.266;14.192;2022-10-16T04:42:05;12.98;88.19
75457;SHT31;64036;48.266;14.192;2022-10-16T04:44:32;12.92;88.32
75457;SHT31;64036;48.266;14.192;2022-10-16T04:46:57;12.87;88.49
75457;SHT31;64036;48.266;14.192;2022-10-16T04:49:23;12.83;88.64
75457;SHT31;64036;48.266;14.192;2022-10-16T04:51:48;12.86;88.76
75457;SHT31;64036;48.266;14.192;2022-10-16T04:54:14;12.90;88.73
75457;SHT31;64036;48.266;14.192;2022-10-16T04:56:40;12.92;88.65
75457;SHT31;64036;48.266;14.192;2022-10-16T04:59:12;12.93;88.68
75457;SHT31;64036;48.266;14.192;2022-10-16T05:01:39;12.97;88.61
75457;SHT31;64036;48.266;14.192;2022-10-16T05:04:04;12.98;88.56
75457;SHT31;64036;48.266;14.192;2022-10-16T05:06:30;13.00;88.49
75457;SHT31;64036;48.266;14.192;2022-10-16T05:08:56;12.99;88.47
75457;SHT31;64036;48.266;14.192;2022-10-16T05:11:21;13.03;88.43
75457;SHT31;64036;48.266;14.192;2022-10-16T05:13:47;13.05;88.34
75457;SHT31;64036;48.266;14.192;2022-10-16T05:16:12;13.06;88.29
75457;SHT31;64036;48.266;14.192;2022-10-16T05:18:38;13.06;88.26
75457;SHT31;64036;48.266;14.192;2022-10-16T05:21:03;13.10;88.24
75457;SHT31;64036;48.266;14.192;2022-10-16T05:23:30;13.13;88.16
75457;SHT31;64036;48.266;14.192;2022-10-16T05:25:57;13.17;88.04
75457;SHT31;64036;48.266;14.192;2022-10-16T05:28:24;13.14;87.98
75457;SHT31;64036;48.266;14.192;2022-10-16T05:30:52;13.19;87.99
75457;SHT31;64036;48.266;14.192;2022-10-16T05:33:22;13.21;87.83
75457;SHT31;64036;48.266;14.192;2022-10-16T05:35:51;13.19;87.77
75457;SHT31;64036;48.266;14.192;2022-10-16T05:38:17;13.19;87.83
75457;SHT31;64036;48.266;14.192;2022-10-16T05:40:49;13.21;87.84
75457;SHT31;64036;48.266;14.192;2022-10-16T05:43:17;13.22;87.75
75457;SHT31;64036;48.266;14.192;2022-10-16T05:45:43;13.23;87.81
75457;SHT31;64036;48.266;14.192;2022-10-16T05:48:09;13.25;87.79
75457;SHT31;64036;48.266;14.192;2022-10-16T05:50:34;13.28;87.80
75457;SHT31;64036;48.266;14.192;2022-10-16T05:53:00;13.30;87.82
75457;SHT31;64036;48.266;14.192;2022-10-16T05:55:25;13.31;87.87
75457;SHT31;64036;48.266;14.192;2022-10-16T05:57:53;13.32;87.86
75457;SHT31;64036;48.266;14.192;2022-10-16T06:00:20;13.38;87.77
75457;SHT31;64036;48.266;14.192;2022-10-16T06:02:45;13.42;87.70
75457;SHT31;64036;48.266;14.192;2022-10-16T06:05:11;13.47;87.56
75457;SHT31;64036;48.266;14.192;2022-10-16T06:07:36;13.53;87.57
75457;SHT31;64036;48.266;14.192;2022-10-16T06:10:02;13.59;87.43
75457;SHT31;64036;48.266;14.192;2022-10-16T06:12:29;13.67;87.29
75457;SHT31;64036;48.266;14.192;2022-10-16T06:14:55;13.68;87.00
75457;SHT31;64036;48.266;14.192;2022-10-16T06:17:20;13.69;87.02
75457;SHT31;64036;48.266;14.192;2022-10-16T06:19:46;13.77;87.09
75457;SHT31;64036;48.266;14.192;2022-10-16T06:22:11;13.83;86.96
75457;SHT31;64036;48.266;14.192;2022-10-16T06:24:37;13.86;86.79
75457;SHT31;64036;48.266;14.192;2022-10-16T06:27:03;13.80;86.50
75457;SHT31;64036;48.266;14.192;2022-10-16T06:29:29;13.73;86.59
75457;SHT31;64036;48.266;14.192;2022-10-16T06:31:55;13.75;86.58
75457;SHT31;64036;48.266;14.192;2022-10-16T06:34:20;13.73;86.70
75457;SHT31;64036;48.266;14.192;2022-10-16T06:36:46;13.74;86.87
75457;SHT31;64036;48.266;14.192;2022-10-16T06:39:12;13.73;86.71
75457;SHT31;64036;48.266;14.192;2022-10-16T06:41:38;13.69;86.74
75457;SHT31;64036;48.266;14.192;2022-10-16T06:44:06;13.72;86.87
75457;SHT31;64036;48.266;14.192;2022-10-16T06:46:33;13.76;86.89
75457;SHT31;64036;48.266;14.192;2022-10-16T06:48:59;13.87;87.09
75457;SHT31;64036;48.266;14.192;2022-10-16T06:51:25;13.96;86.63
75457;SHT31;64036;48.266;14.192;2022-10-16T06:53:52;14.06;86.81
75457;SHT31;64036;48.266;14.192;2022-10-16T06:56:22;14.17;86.86
75457;SHT31;64036;48.266;14.192;2022-10-16T06:58:50;14.29;86.61
75457;SHT31;64036;48.266;14.192;2022-10-16T07:01:18;14.45;86.38
75457;SHT31;64036;48.266;14.192;2022-10-16T07:03:46;14.57;85.72
75457;SHT31;64036;48.266;14.192;2022-10-16T07:06:14;14.59;85.28
75457;SHT31;64036;48.266;14.192;2022-10-16T07:08:43;14.58;85.07
75457;SHT31;64036;48.266;14.192;2022-10-16T07:11:15;14.58;85.03
75457;SHT31;64036;48.266;14.192;2022-10-16T07:13:43;14.67;85.13
75457;SHT31;64036;48.266;14.192;2022-10-16T07:16:11;14.73;84.97
75457;SHT31;64036;48.266;14.192;2022-10-16T07:18:42;14.82;84.89
75457;SHT31;64036;48.266;14.192;2022-10-16T07:21:12;14.83;84.93
75457;SHT31;64036;48.266;14.192;2022-10-16T07:23:44;14.84;85.13
75457;SHT31;64036;48.266;14.192;2022-10-16T07:26:10;14.87;85.12
75457;SHT31;64036;48.266;14.192;2022-10-16T07:28:37;14.90;85.01
75457;SHT31;64036;48.266;14.192;2022-10-16T07:31:09;15.02;85.31
75457;SHT31;64036;48.266;14.192;2022-10-16T07:33:38;15.14;85.17
75457;SHT31;64036;48.266;14.192;2022-10-16T07:36:07;15.20;84.89
75457;SHT31;64036;48.266;14.192;2022-10-16T07:38:33;15.30;84.78
75457;SHT31;64036;48.266;14.192;2022-10-16T07:41:03;15.51;84.25
75457;SHT31;64036;48.266;14.192;2022-10-16T07:43:31;15.60;83.39
75457;SHT31;64036;48.266;14.192;2022-10-16T07:45:58;15.61;83.72
75457;SHT31;64036;48.266;14.192;2022-10-16T07:48:26;15.61;83.14
75457;SHT31;64036;48.266;14.192;2022-10-16T07:50:57;15.62;83.31
75457;SHT31;64036;48.266;14.192;2022-10-16T07:53:25;15.49;83.07
75457;SHT31;64036;48.266;14.192;2022-10-16T07:55:50;15.34;83.41
75457;SHT31;64036;48.266;14.192;2022-10-16T07:58:16;15.48;83.50
75457;SHT31;64036;48.266;14.192;2022-10-16T08:00:41;15.77;83.31
75457;SHT31;64036;48.266;14.192;2022-10-16T08:03:07;15.94;83.04
75457;SHT31;64036;48.266;14.192;2022-10-16T08:05:33;16.08;82.93
75457;SHT31;64036;48.266;14.192;2022-10-16T08:07:59;16.26;82.88
75457;SHT31;64036;48.266;14.192;2022-10-16T08:10:27;16.40;82.45
75457;SHT31;64036;48.266;14.192;2022-10-16T08:12:54;16.38;81.98
75457;SHT31;64036;48.266;14.192;2022-10-16T08:15:20;16.43;81.79
75457;SHT31;64036;48.266;14.192;2022-10-16T08:17:56;16.47;81.37
75457;SHT31;64036;48.266;14.192;2022-10-16T08:20:28;16.39;81.35
75457;SHT31;64036;48.266;14.192;2022-10-16T08:22:55;16.22;81.80
75457;SHT31;64036;48.266;14.192;2022-10-16T08:25:21;16.30;82.13
75457;SHT31;64036;48.266;14.192;2022-10-16T08:27:48;16.94;81.85
75457;SHT31;64036;48.266;14.192;2022-10-16T08:30:16;17.35;80.97
75457;SHT31;64036;48.266;14.192;2022-10-16T08:32:43;17.56;80.49
75457;SHT31;64036;48.266;14.192;2022-10-16T08:35:09;17.67;80.24
75457;SHT31;64036;48.266;14.192;2022-10-16T08:37:36;17.95;79.86
75457;SHT31;64036;48.266;14.192;2022-10-16T08:40:03;17.91;78.59
75457;SHT31;64036;48.266;14.192;2022-10-16T08:42:35;17.66;78.79
75457;SHT31;64036;48.266;14.192;2022-10-16T08:48:38;17.54;79.97
75457;SHT31;64036;48.266;14.192;2022-10-16T08:51:22;17.89;79.44
75457;SHT31;64036;48.266;14.192;2022-10-16T08:54:01;18.39;79.13
75457;SHT31;64036;48.266;14.192;2022-10-16T08:56:38;18.78;78.79
75457;SHT31;64036;48.266;14.192;2022-10-16T08:59:04;18.97;77.64
75457;SHT31;64036;48.266;14.192;2022-10-16T09:01:42;19.01;76.75
75457;SHT31;64036;48.266;14.192;2022-10-16T09:13:02;19.74;74.78
75457;SHT31;64036;48.266;14.192;2022-10-16T09:16:19;20.43;74.15
75457;SHT31;64036;48.266;14.192;2022-10-16T09:21:37;20.94;73.32
75457;SHT31;64036;48.266;14.192;2022-10-16T09:24:17;20.97;72.56
75457;SHT31;64036;48.266;14.192;2022-10-16T09:26:45;20.96;71.94
75457;SHT31;64036;48.266;14.192;2022-10-16T09:29:15;21.00;71.52
75457;SHT31;64036;48.266;14.192;2022-10-16T09:31:45;21.00;71.53
75457;SHT31;64036;48.266;14.192;2022-10-16T09:34:21;21.01;71.72
75457;SHT31;64036;48.266;14.192;2022-10-16T09:37:00;21.18;72.09
75457;SHT31;64036;48.266;14.192;2022-10-16T09:39:29;21.46;71.99
75457;SHT31;64036;48.266;14.192;2022-10-16T09:41:55;21.88;70.92
75457;SHT31;64036;48.266;14.192;2022-10-16T09:44:26;22.34;70.04
75457;SHT31;64036;48.266;14.192;2022-10-16T09:47:05;22.75;69.21
75457;SHT31;64036;48.266;14.192;2022-10-16T09:49:37;22.86;68.22
75457;SHT31;64036;48.266;14.192;2022-10-16T09:52:05;22.94;67.64
75457;SHT31;64036;48.266;14.192;2022-10-16T09:54:37;23.11;67.08
75457;SHT31;64036;48.266;14.192;2022-10-16T09:57:21;23.21;66.98
75457;SHT31;64036;48.266;14.192;2022-10-16T09:59:48;23.27;66.99
75457;SHT31;64036;48.266;14.192;2022-10-16T10:02:22;23.42;66.21
75457;SHT31;64036;48.266;14.192;2022-10-16T10:04:59;23.41;64.43
75457;SHT31;64036;48.266;14.192;2022-10-16T10:07:32;23.37;64.33
75457;SHT31;64036;48.266;14.192;2022-10-16T10:10:04;23.38;64.33
75457;SHT31;64036;48.266;14.192;2022-10-16T10:12:32;23.27;64.22
75457;SHT31;64036;48.266;14.192;2022-10-16T10:15:04;23.28;64.37
75457;SHT31;64036;48.266;14.192;2022-10-16T10:17:47;23.29;62.97
75457;SHT31;64036;48.266;14.192;2022-10-16T10:20:33;23.30;64.03
75457;SHT31;64036;48.266;14.192;2022-10-16T10:23:00;23.45;63.93
75457;SHT31;64036;48.266;14.192;2022-10-16T10:28:53;23.72;62.51
75457;SHT31;64036;48.266;14.192;2022-10-16T10:31:46;23.66;62.14
75457;SHT31;64036;48.266;14.192;2022-10-16T10:34:24;23.77;62.60
75457;SHT31;64036;48.266;14.192;2022-10-16T10:46:00;23.85;61.08
75457;SHT31;64036;48.266;14.192;2022-10-16T10:48:42;23.92;61.09
75457;SHT31;64036;48.266;14.192;2022-10-16T10:57:07;24.02;61.69
75457;SHT31;64036;48.266;14.192;2022-10-16T11:00:06;24.13;61.08
75457;SHT31;64036;48.266;14.192;2022-10-16T11:08:31;24.35;60.46
75457;SHT31;64036;48.266;14.192;2022-10-16T11:11:11;24.44;59.03
75457;SHT31;64036;48.266;14.192;2022-10-16T11:13:55;24.41;58.68
75457;SHT31;64036;48.266;14.192;2022-10-16T11:16:27;24.37;59.69
75457;SHT31;64036;48.266;14.192;2022-10-16T11:21:31;24.66;58.40
75457;SHT31;64036;48.266;14.192;2022-10-16T11:27:08;24.95;57.58
75457;SHT31;64036;48.266;14.192;2022-10-16T11:29:34;24.75;56.15
75457;SHT31;64036;48.266;14.192;2022-10-16T11:32:24;24.41;57.11
75457;SHT31;64036;48.266;14.192;2022-10-16T11:34:57;24.33;56.96
75457;SHT31;64036;48.266;14.192;2022-10-16T11:37:42;24.33;57.25
75457;SHT31;64036;48.266;14.192;2022-10-16T11:40:23;24.55;57.19
75457;SHT31;64036;48.266;14.192;2022-10-16T11:42:57;24.86;57.37
75457;SHT31;64036;48.266;14.192;2022-10-16T11:48:17;24.69;56.47
75457;SHT31;64036;48.266;14.192;2022-10-16T11:51:03;24.52;56.61
75457;SHT31;64036;48.266;14.192;2022-10-16T11:56:35;24.42;57.11
75457;SHT31;64036;48.266;14.192;2022-10-16T11:59:10;24.39;57.12
75457;SHT31;64036;48.266;14.192;2022-10-16T12:01:46;24.67;57.60
75457;SHT31;64036;48.266;14.192;2022-10-16T12:04:29;24.82;56.13
75457;SHT31;64036;48.266;14.192;2022-10-16T12:07:11;24.72;55.27
75457;SHT31;64036;48.266;14.192;2022-10-16T12:09:43;24.53;55.95
75457;SHT31;64036;48.266;14.192;2022-10-16T12:12:25;24.37;56.11
75457;SHT31;64036;48.266;14.192;2022-10-16T12:15:21;24.06;55.67
75457;SHT31;64036;48.266;14.192;2022-10-16T12:17:48;23.95;56.16
75457;SHT31;64036;48.266;14.192;2022-10-16T12:20:19;24.05;56.67
75457;SHT31;64036;48.266;14.192;2022-10-16T12:22:56;24.10;57.22
75457;SHT31;64036;48.266;14.192;2022-10-16T12:28:06;24.17;57.18
75457;SHT31;64036;48.266;14.192;2022-10-16T12:31:00;24.27;56.71
75457;SHT31;64036;48.266;14.192;2022-10-16T12:33:33;24.26;56.19
75457;SHT31;64036;48.266;14.192;2022-10-16T12:36:05;24.18;56.66
75457;SHT31;64036;48.266;14.192;2022-10-16T12:38:50;24.20;57.26
75457;SHT31;64036;48.266;14.192;2022-10-16T12:44:25;24.31;56.18
75457;SHT31;64036;48.266;14.192;2022-10-16T12:46:53;24.25;56.61
75457;SHT31;64036;48.266;14.192;2022-10-16T12:49:29;24.14;55.43
75457;SHT31;64036;48.266;14.192;2022-10-16T12:52:02;23.98;55.10
75457;SHT31;64036;48.266;14.192;2022-10-16T12:54:31;23.94;55.94
75457;SHT31;64036;48.266;14.192;2022-10-16T13:18:11;23.74;55.93
75457;SHT31;64036;48.266;14.192;2022-10-16T13:27:03;23.72;55.53
75457;SHT31;64036;48.266;14.192;2022-10-16T13:29:33;23.62;55.57
75457;SHT31;64036;48.266;14.192;2022-10-16T13:31:59;23.62;55.24
75457;SHT31;64036;48.266;14.192;2022-10-16T13:34:27;23.64;54.82
75457;SHT31;64036;48.266;14.192;2022-10-16T13:36:53;23.64;54.29
75457;SHT31;64036;48.266;14.192;2022-10-16T13:39:29;23.60;55.19
75457;SHT31;64036;48.266;14.192;2022-10-16T13:44:50;23.36;55.32
75457;SHT31;64036;48.266;14.192;2022-10-16T13:47:24;23.31;56.26
75457;SHT31;64036;48.266;14.192;2022-10-16T13:50:03;23.31;55.71
75457;SHT31;64036;48.266;14.192;2022-10-16T13:52:36;23.25;56.02
75457;SHT31;64036;48.266;14.192;2022-10-16T13:55:04;23.12;56.62
75457;SHT31;64036;48.266;14.192;2022-10-16T13:57:36;23.05;56.11
75457;SHT31;64036;48.266;14.192;2022-10-16T14:00:02;23.03;56.25
75457;SHT31;64036;48.266;14.192;2022-10-16T14:05:01;23.13;55.38
75457;SHT31;64036;48.266;14.192;2022-10-16T14:07:30;23.08;55.04
75457;SHT31;64036;48.266;14.192;2022-10-16T14:10:05;23.04;54.96
75457;SHT31;64036;48.266;14.192;2022-10-16T14:12:48;23.00;55.55
75457;SHT31;64036;48.266;14.192;2022-10-16T14:15:40;22.98;55.55
75457;SHT31;64036;48.266;14.192;2022-10-16T14:18:15;22.95;56.52
75457;SHT31;64036;48.266;14.192;2022-10-16T14:20:46;22.89;57.09
75457;SHT31;64036;48.266;14.192;2022-10-16T14:26:05;22.85;57.12
75457;SHT31;64036;48.266;14.192;2022-10-16T14:28:43;22.81;57.25
75457;SHT31;64036;48.266;14.192;2022-10-16T14:33:44;22.70;58.97
75457;SHT31;64036;48.266;14.192;2022-10-16T14:36:12;22.62;59.85
75457;SHT31;64036;48.266;14.192;2022-10-16T14:38:48;22.51;59.67
75457;SHT31;64036;48.266;14.192;2022-10-16T14:41:22;22.38;60.13
75457;SHT31;64036;48.266;14.192;2022-10-16T14:43:53;22.24;59.62
75457;SHT31;64036;48.266;14.192;2022-10-16T14:46:22;22.17;60.07
75457;SHT31;64036;48.266;14.192;2022-10-16T14:48:59;22.14;61.06
75457;SHT31;64036;48.266;14.192;2022-10-16T14:51:30;22.07;61.62
75457;SHT31;64036;48.266;14.192;2022-10-16T14:53:55;21.99;61.79
75457;SHT31;64036;48.266;14.192;2022-10-16T14:56:22;21.94;61.97
75457;SHT31;64036;48.266;14.192;2022-10-16T14:58:51;21.89;61.76
75457;SHT31;64036;48.266;14.192;2022-10-16T15:01:17;21.86;62.20
75457;SHT31;64036;48.266;14.192;2022-10-16T15:03:43;21.82;61.98
75457;SHT31;64036;48.266;14.192;2022-10-16T15:06:10;21.81;62.13
75457;SHT31;64036;48.266;14.192;2022-10-16T15:08:37;21.78;61.55
75457;SHT31;64036;48.266;14.192;2022-10-16T15:11:03;21.76;61.28
75457;SHT31;64036;48.266;14.192;2022-10-16T15:13:30;21.73;61.43
75457;SHT31;64036;48.266;14.192;2022-10-16T15:15:55;21.67;61.76
75457;SHT31;64036;48.266;14.192;2022-10-16T15:18:21;21.61;61.95
75457;SHT31;64036;48.266;14.192;2022-10-16T15:20:48;21.55;62.20
75457;SHT31;64036;48.266;14.192;2022-10-16T15:23:16;21.48;62.65
75457;SHT31;64036;48.266;14.192;2022-10-16T15:25:48;21.41;63.11
75457;SHT31;64036;48.266;14.192;2022-10-16T15:28:18;21.35;63.51
75457;SHT31;64036;48.266;14.192;2022-10-16T15:30:45;21.30;63.79
75457;SHT31;64036;48.266;14.192;2022-10-16T15:33:15;21.25;64.08
75457;SHT31;64036;48.266;14.192;2022-10-16T15:35:49;21.19;64.38
75457;SHT31;64036;48.266;14.192;2022-10-16T15:38:17;21.11;64.77
75457;SHT31;64036;48.266;14.192;2022-10-16T15:40:45;21.01;65.02
75457;SHT31;64036;48.266;14.192;2022-10-16T15:43:12;20.92;65.65
75457;SHT31;64036;48.266;14.192;2022-10-16T15:45:38;20.81;66.07
75457;SHT31;64036;48.266;14.192;2022-10-16T15:48:04;20.73;66.23
75457;SHT31;64036;48.266;14.192;2022-10-16T15:50:30;20.67;66.54
75457;SHT31;64036;48.266;14.192;2022-10-16T15:52:56;20.58;66.93
75457;SHT31;64036;48.266;14.192;2022-10-16T15:55:23;20.51;67.11
75457;SHT31;64036;48.266;14.192;2022-10-16T15:57:49;20.46;67.30
75457;SHT31;64036;48.266;14.192;2022-10-16T16:00:15;20.39;67.53
75457;SHT31;64036;48.266;14.192;2022-10-16T16:02:50;20.34;67.74
75457;SHT31;64036;48.266;14.192;2022-10-16T16:05:18;20.27;67.91
75457;SHT31;64036;48.266;14.192;2022-10-16T16:07:44;20.18;68.31
75457;SHT31;64036;48.266;14.192;2022-10-16T16:10:10;20.14;68.43
75457;SHT31;64036;48.266;14.192;2022-10-16T16:12:37;20.08;68.67
75457;SHT31;64036;48.266;14.192;2022-10-16T16:15:04;20.01;68.91
75457;SHT31;64036;48.266;14.192;2022-10-16T16:17:32;19.94;68.94
75457;SHT31;64036;48.266;14.192;2022-10-16T16:19:58;19.85;69.21
75457;SHT31;64036;48.266;14.192;2022-10-16T16:22:24;19.73;69.49
75457;SHT31;64036;48.266;14.192;2022-10-16T16:24:50;19.67;69.48
75457;SHT31;64036;48.266;14.192;2022-10-16T16:27:15;19.63;69.34
75457;SHT31;64036;48.266;14.192;2022-10-16T16:29:41;19.59;69.29
75457;SHT31;64036;48.266;14.192;2022-10-16T16:32:07;19.53;69.30
75457;SHT31;64036;48.266;14.192;2022-10-16T16:34:33;19.47;69.27
75457;SHT31;64036;48.266;14.192;2022-10-16T16:36:59;19.41;69.43
75457;SHT31;64036;48.266;14.192;2022-10-16T16:39:25;19.36;69.70
75457;SHT31;64036;48.266;14.192;2022-10-16T16:41:51;19.30;69.80
75457;SHT31;64036;48.266;14.192;2022-10-16T16:44:17;19.25;69.81
75457;SHT31;64036;48.266;14.192;2022-10-16T16:46:43;19.18;69.72
75457;SHT31;64036;48.266;14.192;2022-10-16T16:49:10;19.11;69.80
75457;SHT31;64036;48.266;14.192;2022-10-16T16:51:38;19.09;69.90
75457;SHT31;64036;48.266;14.192;2022-10-16T16:54:04;19.05;69.93
75457;SHT31;64036;48.266;14.192;2022-10-16T16:56:32;18.99;70.10
75457;SHT31;64036;48.266;14.192;2022-10-16T16:59:00;18.94;70.20
75457;SHT31;64036;48.266;14.192;2022-10-16T17:01:26;18.89;70.31
75457;SHT31;64036;48.266;14.192;2022-10-16T17:03:54;18.87;70.37
75457;SHT31;64036;48.266;14.192;2022-10-16T17:06:25;18.83;70.43
75457;SHT31;64036;48.266;14.192;2022-10-16T17:08:57;18.77;70.60
75457;SHT31;64036;48.266;14.192;2022-10-16T17:11:24;18.70;70.73
75457;SHT31;64036;48.266;14.192;2022-10-16T17:13:52;18.59;71.03
75457;SHT31;64036;48.266;14.192;2022-10-16T17:16:20;18.54;71.32
75457;SHT31;64036;48.266;14.192;2022-10-16T17:18:55;18.48;71.55
75457;SHT31;64036;48.266;14.192;2022-10-16T17:21:25;18.41;71.74
75457;SHT31;64036;48.266;14.192;2022-10-16T17:23:52;18.34;72.10
75457;SHT31;64036;48.266;14.192;2022-10-16T17:26:18;18.26;72.53
75457;SHT31;64036;48.266;14.192;2022-10-16T17:28:44;18.23;72.97